Amderma, Russia
Current Conditions -  °F | °C
As of 6:00 PM on Friday 24 Oct 2014 (Local Time) from UUYY Reporting Station
Snow Showers Snow Showers  
Wind Chill: 12°   Ceiling: 6600
Heat Index: 23°   Visibility: 5mi
Dew Point: 16°   Wind: 11mph
Humidity: 74%   Direction: 340°NNW
Pressure: 30.33"   Gusts: 22mph
Location:  69.76°N, 61.67°E
Report Text: UUYY 241500Z 34005G10MPS 8000 -SHSN SCT016CB OVC066 M05/M09 Q1027 TEMPO 0700 +SHSN 0182//49 RMK QFE761/1014
Loading
Personal Weather Stations






























Interactive Weather Map
Tropical Storm Tracking
New forecast layout! Learn more

10-Day Weather Forecast

Advertisements
Track Severe Weather on mobile